createdAt,value
2022-09-06T00:04:08.124Z,99.90
2022-09-06T00:09:15.889Z,99.90
2022-09-06T00:14:21.520Z,99.90
2022-09-06T00:19:26.315Z,99.90
2022-09-06T00:24:31.599Z,99.90
2022-09-06T00:29:37.350Z,99.90
2022-09-06T00:34:42.542Z,99.90
2022-09-06T00:39:47.898Z,99.90
2022-09-06T00:44:53.693Z,99.90
2022-09-06T00:50:01.732Z,99.90
2022-09-06T00:55:08.637Z,99.90
2022-09-06T01:00:14.661Z,99.90
2022-09-06T01:05:20.748Z,99.90
2022-09-06T01:10:49.376Z,99.90
2022-09-06T01:16:29.833Z,99.90
2022-09-06T01:22:13.800Z,99.90
2022-09-06T01:27:35.451Z,99.90
2022-09-06T01:33:05.392Z,99.90
2022-09-06T01:38:12.270Z,99.90
2022-09-06T01:43:35.329Z,99.90
2022-09-06T01:49:10.912Z,99.90
2022-09-06T01:54:45.542Z,99.90
2022-09-06T02:00:05.979Z,99.90
2022-09-06T02:05:23.375Z,99.90
2022-09-06T02:10:45.513Z,99.90
2022-09-06T02:15:58.176Z,99.90
2022-09-06T02:21:05.051Z,99.90
2022-09-06T02:26:31.929Z,99.90
2022-09-06T02:31:49.619Z,99.90
2022-09-06T02:36:56.237Z,99.90
2022-09-06T02:42:03.083Z,99.90
2022-09-06T02:47:09.231Z,99.90
2022-09-06T02:52:15.256Z,99.90
2022-09-06T02:57:21.320Z,99.90
2022-09-06T03:02:27.570Z,99.90
2022-09-06T03:07:33.075Z,99.90
2022-09-06T03:12:38.181Z,99.90
2022-09-06T03:17:44.322Z,99.90
2022-09-06T03:22:51.079Z,99.90
2022-09-06T03:27:57.028Z,99.90
2022-09-06T03:33:03.083Z,98.50
2022-09-06T03:38:08.746Z,99.20
2022-09-06T03:43:15.074Z,97.80
2022-09-06T03:48:23.716Z,98.00
2022-09-06T03:53:31.503Z,96.70
2022-09-06T03:58:37.021Z,95.70
2022-09-06T04:03:43.063Z,95.20
2022-09-06T04:08:48.934Z,95.30
2022-09-06T04:13:54.407Z,93.60
2022-09-06T04:19:01.657Z,92.50
2022-09-06T04:24:07.643Z,92.60
2022-09-06T04:29:13.356Z,91.30
2022-09-06T04:34:28.406Z,91.60
2022-09-06T04:39:36.404Z,93.50
2022-09-06T04:44:42.177Z,94.30
2022-09-06T04:49:49.837Z,94.40
2022-09-06T04:54:55.371Z,95.40
2022-09-06T05:00:00.971Z,93.30
2022-09-06T05:05:06.760Z,87.10
2022-09-06T05:10:12.347Z,90.30
2022-09-06T05:15:18.714Z,93.70
2022-09-06T05:20:24.132Z,81.80
2022-09-06T05:25:29.201Z,75.80
2022-09-06T05:30:34.514Z,75.90
2022-09-06T05:35:40.089Z,67.70
2022-09-06T05:40:45.803Z,70.20
2022-09-06T05:45:51.634Z,70.40
2022-09-06T05:51:16.663Z,65.60
2022-09-06T05:56:23.807Z,67.30
2022-09-06T06:01:32.452Z,56.90
2022-09-06T06:06:38.215Z,51.20
2022-09-06T06:11:44.883Z,54.60
2022-09-06T06:16:50.430Z,48.00
2022-09-06T06:21:57.818Z,43.40
2022-09-06T06:27:03.191Z,45.90
2022-09-06T06:32:08.874Z,40.30
2022-09-06T06:37:17.272Z,35.30
2022-09-06T06:42:23.093Z,33.40
2022-09-06T06:47:30.906Z,30.40
2022-09-06T06:52:36.061Z,26.90
2022-09-06T06:57:41.507Z,26.30
2022-09-06T07:02:47.132Z,28.30
2022-09-06T07:07:52.775Z,23.50
2022-09-06T07:12:58.054Z,23.50
2022-09-06T07:18:03.758Z,21.40
2022-09-06T07:28:34.459Z,18.70
2022-09-06T07:33:40.815Z,21.50
2022-09-06T07:38:51.498Z,18.20
2022-09-06T07:44:00.092Z,13.40
2022-09-06T07:49:09.792Z,10.40
2022-09-06T07:54:31.378Z,8.30
2022-09-06T07:59:40.052Z,5.70
2022-09-06T08:04:51.526Z,2.70
2022-09-06T08:09:57.227Z,1.00
2022-09-06T08:15:02.813Z,1.00
2022-09-06T08:20:09.251Z,1.00
2022-09-06T08:25:14.779Z,1.00
2022-09-06T08:30:20.101Z,1.00
2022-09-06T08:35:25.763Z,1.00
2022-09-06T08:40:31.556Z,1.00
2022-09-06T08:45:37.495Z,1.00
2022-09-06T08:50:47.292Z,1.00
2022-09-06T08:55:52.460Z,1.00
2022-09-06T09:01:03.762Z,1.00
2022-09-06T09:06:11.833Z,1.00
2022-09-06T09:11:25.228Z,1.00
2022-09-06T09:16:31.050Z,1.00
2022-09-06T09:21:40.019Z,1.00
2022-09-06T09:27:06.503Z,1.00
2022-09-06T09:32:12.067Z,1.00
2022-09-06T09:42:52.904Z,1.00
2022-09-06T09:47:58.549Z,1.00
2022-09-06T09:53:15.882Z,1.00
2022-09-06T09:58:37.454Z,1.00
2022-09-06T10:09:37.123Z,1.00
2022-09-06T10:14:49.342Z,1.00
2022-09-06T10:19:55.928Z,1.00
2022-09-06T10:25:32.211Z,1.00
2022-09-06T10:30:43.123Z,1.00
2022-09-06T10:35:48.313Z,1.00
2022-09-06T10:41:05.866Z,1.00
2022-09-06T10:46:24.785Z,1.00
2022-09-06T10:51:47.294Z,1.00
2022-09-06T11:08:50.362Z,1.00
2022-09-06T11:14:01.406Z,2.20
2022-09-06T11:19:19.008Z,1.00
2022-09-06T11:24:46.024Z,1.00
2022-09-06T11:29:57.931Z,1.60
2022-09-06T11:35:08.830Z,1.00
2022-09-06T11:40:28.401Z,1.50
2022-09-06T11:45:51.208Z,1.50
2022-09-06T11:50:56.748Z,3.50
2022-09-06T11:56:05.069Z,3.40
2022-09-06T12:01:18.193Z,5.50
2022-09-06T12:06:35.267Z,6.60
2022-09-06T12:11:46.633Z,8.10
2022-09-06T12:17:06.215Z,8.00
2022-09-06T12:22:49.735Z,8.20
2022-09-06T12:28:00.577Z,9.20
2022-09-06T12:33:23.907Z,6.60
2022-09-06T12:38:30.142Z,4.90
2022-09-06T12:43:37.829Z,3.60
2022-09-06T12:48:45.959Z,3.70
2022-09-06T12:53:57.244Z,2.80
2022-09-06T12:59:18.597Z,2.30
2022-09-06T13:04:42.660Z,1.20
2022-09-06T13:09:52.338Z,1.00
2022-09-06T13:15:05.059Z,1.30
2022-09-06T13:20:29.681Z,2.40
2022-09-06T13:25:35.543Z,3.30
2022-09-06T13:30:50.101Z,3.90
2022-09-06T13:36:21.487Z,4.60
2022-09-06T13:41:30.319Z,5.40
2022-09-06T13:46:37.886Z,4.60
2022-09-06T13:51:44.938Z,4.90
2022-09-06T13:56:51.586Z,5.80
2022-09-06T14:02:11.420Z,5.10
2022-09-06T14:07:17.378Z,4.70
2022-09-06T14:12:23.073Z,4.40
2022-09-06T14:17:29.271Z,5.80
2022-09-06T14:22:35.107Z,6.10
2022-09-06T14:27:42.236Z,6.90
2022-09-06T14:32:48.056Z,6.50
2022-09-06T14:37:53.746Z,6.40
2022-09-06T14:42:59.875Z,6.70
2022-09-06T14:48:06.277Z,7.40
2022-09-06T14:53:36.784Z,8.20
2022-09-06T14:58:40.007Z,8.80
2022-09-06T15:03:49.974Z,10.00
2022-09-06T15:08:59.348Z,10.50
2022-09-06T15:14:09.337Z,11.80
2022-09-06T15:19:16.245Z,13.60
2022-09-06T15:24:23.559Z,14.10
2022-09-06T15:29:29.668Z,15.20
2022-09-06T15:34:35.308Z,16.00
2022-09-06T15:39:40.695Z,16.60
2022-09-06T15:44:46.152Z,17.40
2022-09-06T15:49:52.380Z,18.10
2022-09-06T15:55:16.582Z,19.10
2022-09-06T16:00:24.095Z,19.30
2022-09-06T16:10:55.386Z,20.90
2022-09-06T16:16:04.365Z,21.40
2022-09-06T16:21:12.059Z,22.60
2022-09-06T16:26:21.309Z,22.80
2022-09-06T16:31:28.591Z,23.00
2022-09-06T16:36:34.050Z,23.70
2022-09-06T16:41:42.289Z,24.50
2022-09-06T16:46:49.047Z,25.60
2022-09-06T16:51:54.647Z,25.40
2022-09-06T16:56:59.566Z,25.70
2022-09-06T17:02:05.402Z,26.70
2022-09-06T17:07:11.089Z,25.70
2022-09-06T17:12:17.171Z,25.80
2022-09-06T17:17:22.727Z,26.40
2022-09-06T17:22:28.771Z,26.90
2022-09-06T17:27:34.612Z,35.80
2022-09-06T17:32:40.255Z,26.90
2022-09-06T17:37:45.520Z,26.70
2022-09-06T17:42:50.870Z,26.20
2022-09-06T17:47:56.264Z,26.20
2022-09-06T17:53:01.826Z,26.30
2022-09-06T17:58:08.075Z,26.80
2022-09-06T18:03:14.012Z,26.40
2022-09-06T18:08:19.703Z,25.90
2022-09-06T18:13:25.532Z,25.50
2022-09-06T18:18:32.025Z,25.40
2022-09-06T18:23:38.256Z,25.10
2022-09-06T18:28:44.134Z,33.80
2022-09-06T18:33:49.867Z,25.40
2022-09-06T18:38:55.034Z,25.60
2022-09-06T18:44:02.183Z,25.30
2022-09-06T18:49:08.878Z,25.00
2022-09-06T18:54:15.121Z,25.30
2022-09-06T18:59:20.956Z,25.30
2022-09-06T19:04:26.864Z,25.00
2022-09-06T19:09:32.731Z,24.20
2022-09-06T19:14:38.537Z,24.10
2022-09-06T19:19:43.813Z,23.70
2022-09-06T19:24:49.283Z,23.40
2022-09-06T19:29:54.516Z,23.20
2022-09-06T19:35:00.286Z,22.80
2022-09-06T19:40:06.225Z,22.30
2022-09-06T19:45:12.280Z,30.30
2022-09-06T19:50:18.032Z,22.00
2022-09-06T19:55:23.304Z,21.70
2022-09-06T20:00:31.286Z,21.40
2022-09-06T20:05:39.959Z,21.80
2022-09-06T20:10:58.116Z,21.40
2022-09-06T20:16:06.279Z,21.10
2022-09-06T20:21:15.431Z,21.40
2022-09-06T20:26:21.579Z,22.40
2022-09-06T20:31:28.701Z,22.50
2022-09-06T20:36:34.565Z,22.90
2022-09-06T20:41:40.199Z,23.60
2022-09-06T20:46:45.826Z,23.80
2022-09-06T20:51:51.603Z,24.90
2022-09-06T20:56:56.937Z,25.50
2022-09-06T21:02:02.271Z,25.80
2022-09-06T21:07:08.522Z,26.60
2022-09-06T21:12:14.152Z,26.40
2022-09-06T21:17:19.222Z,27.10
2022-09-06T21:22:24.640Z,27.90
2022-09-06T21:27:29.412Z,28.40
2022-09-06T21:32:34.836Z,29.50
2022-09-06T21:37:40.229Z,29.20
2022-09-06T21:42:46.194Z,29.80
2022-09-06T21:47:52.077Z,30.00
2022-09-06T21:52:57.401Z,30.20
2022-09-06T21:58:02.775Z,30.60
2022-09-06T22:03:08.924Z,32.30
2022-09-06T22:08:14.316Z,30.80
2022-09-06T22:13:21.908Z,30.80
2022-09-06T22:18:27.741Z,32.00
2022-09-06T22:23:33.945Z,33.50
2022-09-06T22:28:40.353Z,34.60
2022-09-06T22:33:46.212Z,34.60
2022-09-06T22:38:54.598Z,35.40
2022-09-06T22:44:03.344Z,35.30
2022-09-06T22:49:09.934Z,36.00
2022-09-06T22:54:16.397Z,36.60
2022-09-06T22:59:26.056Z,39.00
2022-09-06T23:04:33.671Z,39.80
2022-09-06T23:09:40.113Z,40.90
2022-09-06T23:14:46.435Z,42.00
2022-09-06T23:19:51.620Z,43.50
2022-09-06T23:24:57.517Z,44.80
2022-09-06T23:30:04.841Z,46.50
2022-09-06T23:35:12.257Z,47.40
2022-09-06T23:40:18.499Z,49.30
2022-09-06T23:45:24.034Z,51.10
2022-09-06T23:50:29.863Z,52.90
2022-09-06T23:55:35.209Z,53.60
